createdAt,value
2018-08-23T00:00:38.715Z,18.70
2018-08-23T00:03:40.035Z,18.80
2018-08-23T00:06:08.173Z,19.00
2018-08-23T00:08:36.340Z,19.00
2018-08-23T00:11:04.501Z,19.00
2018-08-23T00:13:38.070Z,19.20
2018-08-23T00:16:07.169Z,19.10
2018-08-23T00:18:35.315Z,19.00
2018-08-23T00:21:04.389Z,18.80
2018-08-23T00:23:32.517Z,18.70
2018-08-23T00:26:00.669Z,18.60
2018-08-23T00:28:28.805Z,18.50
2018-08-23T00:30:56.951Z,18.40
2018-08-23T00:33:25.105Z,18.20
2018-08-23T00:35:53.241Z,18.00
2018-08-23T00:38:21.398Z,17.80
2018-08-23T00:40:49.550Z,17.60
2018-08-23T00:43:17.697Z,17.40
2018-08-23T00:45:45.830Z,17.20
2018-08-23T00:48:13.973Z,17.10
2018-08-23T00:50:53.377Z,16.90
2018-08-23T00:53:21.517Z,16.70
2018-08-23T00:55:59.707Z,16.70
2018-08-23T00:58:27.862Z,16.50
2018-08-23T01:01:01.317Z,16.40
2018-08-23T01:03:29.497Z,16.30
2018-08-23T01:05:57.654Z,16.20
2018-08-23T01:08:30.987Z,16.20
2018-08-23T01:10:59.122Z,16.20
2018-08-23T01:13:27.246Z,16.10
2018-08-23T01:15:55.370Z,16.10
2018-08-23T01:18:23.507Z,16.00
2018-08-23T01:20:52.523Z,16.00
2018-08-23T01:23:20.814Z,15.90
2018-08-23T01:25:49.587Z,15.90
2018-08-23T01:28:17.728Z,15.80
2018-08-23T01:30:46.616Z,15.80
2018-08-23T01:33:15.950Z,15.70
2018-08-23T01:35:45.247Z,15.60
2018-08-23T01:38:14.158Z,15.60
2018-08-23T01:40:42.446Z,15.50
2018-08-23T01:43:10.593Z,15.50
2018-08-23T01:45:38.698Z,15.40
2018-08-23T01:48:08.081Z,15.40
2018-08-23T01:50:36.226Z,15.40
2018-08-23T01:53:04.443Z,15.30
2018-08-23T01:55:32.579Z,15.30
2018-08-23T01:58:00.748Z,15.20
2018-08-23T02:00:31.096Z,15.20
2018-08-23T02:03:00.601Z,15.10
2018-08-23T02:05:28.724Z,15.00
2018-08-23T02:07:56.865Z,14.90
2018-08-23T02:10:25.026Z,14.80
2018-08-23T02:12:56.189Z,14.70
2018-08-23T02:15:24.324Z,14.60
2018-08-23T02:17:56.510Z,14.50
2018-08-23T02:20:25.717Z,14.50
2018-08-23T02:22:54.500Z,14.40
2018-08-23T02:25:22.673Z,14.40
2018-08-23T02:27:59.234Z,14.30
2018-08-23T02:30:41.080Z,14.30
2018-08-23T02:33:10.231Z,14.20
2018-08-23T02:35:38.469Z,14.10
2018-08-23T02:38:06.948Z,14.10
2018-08-23T02:40:35.348Z,14.00
2018-08-23T02:43:03.481Z,14.00
2018-08-23T02:45:38.043Z,13.90
2018-08-23T02:48:06.849Z,13.80
2018-08-23T02:50:35.103Z,13.80
2018-08-23T02:53:45.797Z,13.80
2018-08-23T02:56:16.533Z,13.80
2018-08-23T02:58:56.882Z,13.70
2018-08-23T03:01:26.134Z,13.70
2018-08-23T03:04:08.389Z,13.70
2018-08-23T03:06:54.800Z,13.70
2018-08-23T03:09:25.647Z,13.60
2018-08-23T03:11:54.839Z,13.50
2018-08-23T03:14:23.736Z,13.50
2018-08-23T03:17:14.310Z,13.50
2018-08-23T03:20:00.072Z,13.60
2018-08-23T03:22:28.793Z,13.50
2018-08-23T03:24:58.251Z,13.60
2018-08-23T03:27:26.381Z,13.50
2018-08-23T03:29:54.512Z,13.50
2018-08-23T03:32:22.621Z,13.50
2018-08-23T03:34:50.750Z,13.40
2018-08-23T03:37:18.902Z,13.30
2018-08-23T03:39:47.564Z,13.30
2018-08-23T03:42:15.677Z,13.30
2018-08-23T03:44:43.793Z,13.30
2018-08-23T03:47:11.929Z,13.20
2018-08-23T03:49:44.114Z,13.20
2018-08-23T03:52:13.039Z,13.30
2018-08-23T03:54:41.150Z,13.20
2018-08-23T03:57:15.417Z,13.10
2018-08-23T03:59:44.809Z,13.10
2018-08-23T04:02:13.815Z,13.10
2018-08-23T04:04:42.462Z,13.10
2018-08-23T04:07:11.267Z,13.10
2018-08-23T04:09:39.397Z,13.10
2018-08-23T04:12:08.041Z,13.10
2018-08-23T04:14:36.349Z,13.10
2018-08-23T04:17:06.234Z,13.10
2018-08-23T04:19:38.907Z,13.00
2018-08-23T04:22:07.038Z,12.90
2018-08-23T04:24:36.485Z,12.90
2018-08-23T04:27:04.667Z,12.90
2018-08-23T04:29:38.306Z,13.00
2018-08-23T04:32:06.428Z,13.00
2018-08-23T04:34:36.437Z,13.00
2018-08-23T04:37:04.603Z,13.00
2018-08-23T04:39:32.714Z,12.90
2018-08-23T04:42:03.744Z,12.90
2018-08-23T04:44:37.438Z,12.90
2018-08-23T04:47:06.238Z,12.90
2018-08-23T04:49:34.366Z,13.00
2018-08-23T04:52:02.548Z,13.00
2018-08-23T04:54:30.679Z,13.10
2018-08-23T04:56:58.808Z,13.20
2018-08-23T04:59:26.930Z,13.20
2018-08-23T05:01:55.053Z,13.30
2018-08-23T05:04:23.206Z,13.40
2018-08-23T05:06:51.353Z,13.40
2018-08-23T05:09:19.497Z,13.50
2018-08-23T05:11:47.634Z,13.70
2018-08-23T05:14:15.788Z,13.90
2018-08-23T05:16:43.916Z,14.10
2018-08-23T05:19:12.045Z,14.30
2018-08-23T05:21:40.166Z,14.50
2018-08-23T05:24:11.482Z,14.60
2018-08-23T05:26:39.839Z,14.80
2018-08-23T05:29:08.946Z,14.90
2018-08-23T05:31:37.150Z,15.10
2018-08-23T05:34:06.679Z,15.30
2018-08-23T05:36:34.817Z,15.50
2018-08-23T05:39:04.487Z,15.70
2018-08-23T05:41:32.646Z,15.90
2018-08-23T05:44:07.764Z,16.10
2018-08-23T05:46:38.398Z,16.30
2018-08-23T05:49:07.177Z,16.40
2018-08-23T05:51:38.766Z,16.70
2018-08-23T05:54:06.941Z,16.90
2018-08-23T05:56:35.234Z,17.20
2018-08-23T05:59:08.911Z,17.50
2018-08-23T06:01:37.029Z,17.70
2018-08-23T06:04:05.162Z,17.90
2018-08-23T06:06:33.261Z,18.10
2018-08-23T06:09:02.194Z,18.30
2018-08-23T06:11:30.423Z,18.50
2018-08-23T06:13:58.567Z,18.70
2018-08-23T06:16:26.684Z,18.90
2018-08-23T06:18:54.809Z,19.10
2018-08-23T06:21:22.922Z,19.50
2018-08-23T06:23:55.137Z,19.70
2018-08-23T06:26:39.836Z,19.90
2018-08-23T06:29:08.785Z,20.10
2018-08-23T06:31:45.896Z,20.40
2018-08-23T06:34:14.017Z,20.60
2018-08-23T06:36:44.662Z,20.90
2018-08-23T06:39:12.799Z,21.00
2018-08-23T06:41:40.932Z,21.20
2018-08-23T06:44:09.054Z,21.40
2018-08-23T06:46:37.170Z,21.50
2018-08-23T06:49:05.314Z,21.70
2018-08-23T06:51:33.438Z,21.80
2018-08-23T06:54:01.993Z,21.90
2018-08-23T06:56:31.186Z,22.00
2018-08-23T06:58:59.442Z,22.10
2018-08-23T07:01:36.123Z,22.30
2018-08-23T07:04:12.690Z,22.50
2018-08-23T07:06:41.004Z,22.70
2018-08-23T07:09:16.027Z,22.90
2018-08-23T07:11:44.408Z,22.90
2018-08-23T07:14:16.898Z,22.90
2018-08-23T07:16:46.230Z,23.00
2018-08-23T07:19:25.309Z,23.10
2018-08-23T07:21:54.188Z,23.30
2018-08-23T07:24:40.114Z,23.40
2018-08-23T07:27:10.976Z,23.60
2018-08-23T07:29:39.146Z,23.70
2018-08-23T07:32:08.421Z,23.90
2018-08-23T07:34:36.710Z,24.00
2018-08-23T07:37:10.046Z,24.10
2018-08-23T07:39:38.186Z,24.30
2018-08-23T07:42:06.307Z,24.30
2018-08-23T07:44:34.421Z,24.30
2018-08-23T07:47:02.558Z,24.30
2018-08-23T07:49:30.690Z,24.30
2018-08-23T07:51:58.822Z,24.30
2018-08-23T07:54:26.942Z,24.30
2018-08-23T07:56:55.083Z,24.40
2018-08-23T07:59:23.282Z,24.60
2018-08-23T08:01:51.414Z,24.80
2018-08-23T08:04:20.093Z,25.00
2018-08-23T08:06:48.266Z,25.00
2018-08-23T08:09:23.643Z,25.00
2018-08-23T08:11:57.238Z,25.10
2018-08-23T08:14:36.901Z,25.20
2018-08-23T08:17:16.280Z,25.30
2018-08-23T08:19:50.505Z,25.40
2018-08-23T08:22:19.498Z,25.50
2018-08-23T08:24:49.574Z,25.50
2018-08-23T08:27:17.753Z,25.50
2018-08-23T08:29:45.882Z,25.50
2018-08-23T08:32:14.070Z,25.50
2018-08-23T08:34:43.959Z,25.60
2018-08-23T08:37:12.428Z,25.80
2018-08-23T08:39:40.901Z,25.90
2018-08-23T08:42:09.049Z,25.90
2018-08-23T08:44:37.374Z,26.00
2018-08-23T08:47:05.506Z,26.10
2018-08-23T08:49:34.935Z,26.10
2018-08-23T08:52:03.076Z,26.10
2018-08-23T08:54:31.215Z,26.20
2018-08-23T08:56:59.393Z,26.30
2018-08-23T08:59:28.698Z,26.30
2018-08-23T09:01:56.856Z,26.30
2018-08-23T09:04:30.333Z,26.40
2018-08-23T09:06:58.547Z,26.40
2018-08-23T09:09:32.061Z,26.40
2018-08-23T09:12:02.846Z,26.60
2018-08-23T09:14:31.014Z,26.70
2018-08-23T09:16:59.237Z,26.70
2018-08-23T09:19:39.329Z,26.80
2018-08-23T09:22:12.871Z,26.90
2018-08-23T09:24:41.079Z,26.80
2018-08-23T09:27:17.767Z,26.80
2018-08-23T09:29:45.866Z,27.00
2018-08-23T09:32:20.942Z,27.00
2018-08-23T09:34:49.581Z,27.00
2018-08-23T09:37:17.749Z,27.00
2018-08-23T09:39:46.415Z,27.10
2018-08-23T09:42:14.568Z,27.20
2018-08-23T09:44:58.068Z,27.10
2018-08-23T09:47:26.496Z,27.20
2018-08-23T09:49:54.824Z,27.30
2018-08-23T09:52:28.491Z,27.30
2018-08-23T09:54:56.663Z,27.30
2018-08-23T09:57:25.309Z,27.40
2018-08-23T09:59:54.085Z,27.40
2018-08-23T10:02:27.800Z,27.50
2018-08-23T10:04:57.422Z,27.60
2018-08-23T10:07:31.150Z,27.70
2018-08-23T10:10:04.630Z,27.50
2018-08-23T10:12:38.268Z,27.30
2018-08-23T10:15:11.886Z,27.20
2018-08-23T10:17:45.541Z,27.30
2018-08-23T10:20:19.034Z,27.40
2018-08-23T10:22:51.422Z,27.50
2018-08-23T10:25:32.450Z,27.60
2018-08-23T10:28:00.605Z,27.80
2018-08-23T10:30:29.090Z,27.70
2018-08-23T10:32:57.400Z,27.50
2018-08-23T10:35:25.521Z,27.50
2018-08-23T10:37:53.659Z,27.60
2018-08-23T10:40:21.807Z,27.70
2018-08-23T10:42:50.010Z,27.70
2018-08-23T10:45:18.137Z,27.80
2018-08-23T10:47:51.774Z,27.90
2018-08-23T10:50:20.098Z,27.90
2018-08-23T10:52:48.281Z,27.80
2018-08-23T10:55:16.454Z,27.70
2018-08-23T10:57:44.634Z,27.70
2018-08-23T11:00:12.761Z,27.60
2018-08-23T11:02:40.898Z,27.50
2018-08-23T11:05:09.096Z,27.60
2018-08-23T11:07:42.756Z,27.60
2018-08-23T11:10:16.502Z,27.70
2018-08-23T11:12:50.218Z,27.90
2018-08-23T11:15:22.455Z,27.80
2018-08-23T11:17:56.192Z,27.80
2018-08-23T11:20:34.705Z,27.90
2018-08-23T11:23:02.956Z,27.80
2018-08-23T11:25:31.102Z,27.80
2018-08-23T11:28:03.511Z,27.90
2018-08-23T11:30:31.840Z,28.10
2018-08-23T11:33:00.018Z,28.00
2018-08-23T11:35:28.200Z,28.10
2018-08-23T11:37:56.395Z,28.20
2018-08-23T11:40:24.594Z,28.40
2018-08-23T11:42:52.867Z,28.40
2018-08-23T11:45:21.002Z,28.40
2018-08-23T11:47:49.138Z,28.20
2018-08-23T11:50:17.289Z,28.00
2018-08-23T11:52:45.438Z,27.90
2018-08-23T11:55:13.577Z,28.00
2018-08-23T11:57:41.709Z,28.00
2018-08-23T12:00:09.859Z,28.10
2018-08-23T12:02:42.014Z,28.10
2018-08-23T12:05:10.557Z,28.00
2018-08-23T12:07:42.981Z,28.00
2018-08-23T12:10:11.115Z,28.20
2018-08-23T12:12:39.243Z,28.20
2018-08-23T12:15:07.386Z,27.90
2018-08-23T12:17:35.510Z,27.90
2018-08-23T12:20:03.668Z,28.20
2018-08-23T12:22:37.033Z,28.00
2018-08-23T12:25:05.184Z,27.70
2018-08-23T12:27:33.346Z,27.50
2018-08-23T12:30:03.603Z,27.70
2018-08-23T12:32:31.742Z,28.00
2018-08-23T12:34:59.919Z,28.00
2018-08-23T12:37:33.438Z,27.80
2018-08-23T12:40:06.957Z,27.60
2018-08-23T12:42:40.498Z,27.70
2018-08-23T12:45:08.635Z,27.90
2018-08-23T12:47:36.788Z,28.00
2018-08-23T12:50:06.077Z,28.00
2018-08-23T12:52:34.573Z,28.10
2018-08-23T12:55:03.149Z,28.20
2018-08-23T12:57:31.280Z,28.30
2018-08-23T12:59:59.401Z,28.30
2018-08-23T13:02:28.044Z,28.20
2018-08-23T13:04:57.449Z,28.20
2018-08-23T13:07:25.586Z,28.20
2018-08-23T13:09:53.711Z,28.10
2018-08-23T13:12:21.844Z,28.30
2018-08-23T13:14:49.962Z,28.40
2018-08-23T13:17:18.076Z,28.30
2018-08-23T13:19:46.190Z,28.40
2018-08-23T13:22:18.572Z,28.30
2018-08-23T13:24:51.930Z,28.20
2018-08-23T13:27:20.070Z,28.50
2018-08-23T13:29:48.148Z,28.80
2018-08-23T13:32:16.265Z,28.90
2018-08-23T13:34:44.382Z,29.10
2018-08-23T13:37:12.509Z,29.20
2018-08-23T13:39:40.653Z,29.10
2018-08-23T13:42:08.776Z,29.10
2018-08-23T13:44:36.908Z,28.90
2018-08-23T13:47:05.053Z,28.70
2018-08-23T13:49:33.167Z,28.80
2018-08-23T13:52:01.288Z,29.00
2018-08-23T13:54:29.448Z,29.10
2018-08-23T13:56:58.106Z,29.40
2018-08-23T13:59:26.231Z,29.20
2018-08-23T14:01:54.354Z,28.90
2018-08-23T14:04:22.497Z,28.80
2018-08-23T14:06:50.650Z,28.70
2018-08-23T14:09:18.790Z,28.70
2018-08-23T14:11:46.929Z,28.60
2018-08-23T14:14:15.067Z,28.50
2018-08-23T14:16:43.206Z,28.50
2018-08-23T14:19:11.374Z,28.40
2018-08-23T14:21:39.492Z,28.10
2018-08-23T14:24:07.630Z,27.90
2018-08-23T14:26:35.768Z,27.70
2018-08-23T14:29:03.897Z,27.50
2018-08-23T14:31:32.024Z,27.40
2018-08-23T14:34:00.161Z,27.50
2018-08-23T14:36:28.283Z,27.80
2018-08-23T14:38:56.471Z,28.00
2018-08-23T14:41:24.586Z,28.00
2018-08-23T14:43:52.717Z,28.00
2018-08-23T14:46:26.255Z,28.00
2018-08-23T14:48:54.390Z,28.00
2018-08-23T14:51:22.599Z,28.10
2018-08-23T14:53:50.765Z,28.10
2018-08-23T14:56:24.314Z,28.00
2018-08-23T14:58:52.482Z,28.10
2018-08-23T15:01:20.658Z,28.00
2018-08-23T15:03:48.762Z,27.90
2018-08-23T15:06:16.952Z,27.90
2018-08-23T15:08:45.090Z,27.90
2018-08-23T15:11:13.222Z,27.90
2018-08-23T15:13:41.385Z,28.00
2018-08-23T15:16:09.531Z,28.00
2018-08-23T15:18:37.677Z,27.90
2018-08-23T15:21:05.874Z,27.80
2018-08-23T15:23:34.314Z,27.80
2018-08-23T15:26:02.508Z,27.60
2018-08-23T15:28:30.656Z,27.40
2018-08-23T15:30:58.805Z,27.30
2018-08-23T15:33:26.950Z,27.40
2018-08-23T15:35:55.082Z,27.40
2018-08-23T15:38:23.298Z,27.20
2018-08-23T15:40:51.483Z,27.00
2018-08-23T15:43:19.993Z,26.80
2018-08-23T15:45:48.237Z,26.60
2018-08-23T15:48:16.378Z,26.50
2018-08-23T15:50:44.668Z,26.40
2018-08-23T15:53:14.076Z,26.40
2018-08-23T15:55:42.289Z,26.40
2018-08-23T15:58:10.412Z,26.40
2018-08-23T16:00:39.814Z,26.50
2018-08-23T16:03:08.412Z,26.40
2018-08-23T16:05:36.949Z,26.30
2018-08-23T16:08:05.617Z,26.10
2018-08-23T16:10:33.838Z,26.10
2018-08-23T16:13:02.054Z,26.00
2018-08-23T16:15:30.558Z,25.90
2018-08-23T16:18:04.051Z,25.80
2018-08-23T16:20:37.538Z,25.80
2018-08-23T16:23:05.925Z,25.80
2018-08-23T16:25:39.523Z,26.00
2018-08-23T16:28:07.747Z,26.30
2018-08-23T16:30:39.708Z,26.50
2018-08-23T16:33:07.854Z,26.50
2018-08-23T16:35:36.114Z,26.50
2018-08-23T16:38:04.371Z,26.40
2018-08-23T16:40:33.186Z,26.30
2018-08-23T16:43:02.898Z,26.20
2018-08-23T16:45:31.096Z,26.10
2018-08-23T16:47:59.262Z,26.10
2018-08-23T16:50:28.458Z,26.00
2018-08-23T16:52:56.742Z,25.90
2018-08-23T16:55:25.004Z,25.70
2018-08-23T16:57:53.357Z,25.60
2018-08-23T17:00:21.539Z,25.50
2018-08-23T17:02:49.836Z,25.40
2018-08-23T17:05:18.188Z,25.30
2018-08-23T17:07:46.318Z,25.20
2018-08-23T17:10:14.523Z,25.10
2018-08-23T17:12:42.576Z,25.00
2018-08-23T17:15:15.305Z,24.80
2018-08-23T17:17:52.772Z,24.70
2018-08-23T17:20:20.996Z,24.60
2018-08-23T17:22:49.153Z,24.50
2018-08-23T17:25:17.452Z,24.40
2018-08-23T17:27:45.509Z,24.20
2018-08-23T17:30:13.735Z,24.10
2018-08-23T17:32:41.867Z,24.00
2018-08-23T17:35:09.973Z,24.00
2018-08-23T17:37:38.092Z,23.90
2018-08-23T17:40:06.277Z,23.80
2018-08-23T17:42:39.861Z,23.70
2018-08-23T17:45:07.986Z,23.70
2018-08-23T17:47:36.114Z,23.60
2018-08-23T17:50:04.230Z,23.40
2018-08-23T17:52:32.349Z,23.30
2018-08-23T17:55:00.465Z,23.20
2018-08-23T17:57:28.595Z,23.20
2018-08-23T17:59:56.715Z,23.10
2018-08-23T18:02:24.848Z,23.00
2018-08-23T18:04:53.023Z,22.90
2018-08-23T18:07:21.154Z,22.70
2018-08-23T18:09:49.277Z,22.60
2018-08-23T18:12:17.423Z,22.50
2018-08-23T18:14:45.535Z,22.30
2018-08-23T18:17:14.529Z,22.20
2018-08-23T18:19:42.656Z,22.00
2018-08-23T18:22:10.815Z,21.80
2018-08-23T18:24:39.601Z,21.80
2018-08-23T18:27:07.717Z,21.70
2018-08-23T18:29:35.849Z,21.60
2018-08-23T18:32:04.028Z,21.40
2018-08-23T18:34:32.093Z,21.30
2018-08-23T18:37:00.234Z,21.20
2018-08-23T18:39:28.365Z,21.10
2018-08-23T18:41:56.493Z,20.90
2018-08-23T18:44:24.621Z,20.90
2018-08-23T18:46:52.741Z,20.80
2018-08-23T18:49:20.883Z,20.90
2018-08-23T18:51:49.005Z,20.90
2018-08-23T18:54:17.159Z,20.90
2018-08-23T18:56:45.259Z,20.90
2018-08-23T18:59:13.374Z,20.80
2018-08-23T19:01:41.491Z,20.70
2018-08-23T19:04:09.639Z,20.70
2018-08-23T19:06:38.222Z,20.70
2018-08-23T19:09:09.085Z,20.50
2018-08-23T19:11:37.218Z,20.40
2018-08-23T19:14:05.346Z,20.30
2018-08-23T19:16:38.960Z,20.20
2018-08-23T19:19:07.194Z,20.00
2018-08-23T19:21:35.292Z,19.90
2018-08-23T19:24:03.425Z,19.70
2018-08-23T19:26:31.547Z,19.70
2018-08-23T19:28:59.826Z,19.60
2018-08-23T19:31:28.062Z,19.60
2018-08-23T19:33:56.134Z,19.60
2018-08-23T19:36:24.270Z,19.70
2018-08-23T19:38:52.409Z,19.70
2018-08-23T19:41:20.534Z,19.70
2018-08-23T19:43:48.666Z,19.60
2018-08-23T19:46:22.132Z,19.60
2018-08-23T19:48:54.555Z,19.50
2018-08-23T19:51:22.656Z,19.50
2018-08-23T19:53:50.807Z,19.50
2018-08-23T19:56:18.908Z,19.50
2018-08-23T19:58:47.036Z,19.40
2018-08-23T20:01:15.162Z,19.30
2018-08-23T20:03:43.302Z,19.20
2018-08-23T20:06:11.461Z,19.00
2018-08-23T20:08:39.617Z,19.00
2018-08-23T20:11:07.762Z,18.90
2018-08-23T20:13:35.893Z,18.80
2018-08-23T20:16:04.050Z,18.70
2018-08-23T20:18:32.193Z,18.60
2018-08-23T20:21:00.335Z,18.40
2018-08-23T20:23:28.468Z,18.30
2018-08-23T20:25:56.637Z,18.20
2018-08-23T20:28:24.803Z,18.10
2018-08-23T20:30:52.968Z,18.00
2018-08-23T20:33:21.842Z,17.90
2018-08-23T20:35:49.988Z,17.80
2018-08-23T20:38:18.139Z,17.70
2018-08-23T20:40:46.288Z,17.60
2018-08-23T20:43:14.438Z,17.50
2018-08-23T20:45:42.589Z,17.40
2018-08-23T20:48:10.773Z,17.30
2018-08-23T20:50:38.893Z,17.20
2018-08-23T20:53:07.042Z,17.20
2018-08-23T20:55:35.176Z,17.20
2018-08-23T20:58:03.361Z,17.20
2018-08-23T21:00:31.449Z,17.20
2018-08-23T21:02:59.589Z,17.10
2018-08-23T21:05:27.722Z,17.00
2018-08-23T21:07:55.846Z,17.10
2018-08-23T21:10:23.970Z,17.10
2018-08-23T21:12:52.106Z,17.10
2018-08-23T21:15:20.233Z,17.10
2018-08-23T21:17:48.386Z,17.10
2018-08-23T21:20:16.485Z,17.10
2018-08-23T21:22:44.623Z,17.10
2018-08-23T21:25:12.763Z,17.10
2018-08-23T21:27:40.874Z,17.10
2018-08-23T21:30:09.013Z,17.10
2018-08-23T21:32:37.126Z,17.10
2018-08-23T21:35:05.327Z,17.10
2018-08-23T21:37:33.457Z,17.10
2018-08-23T21:40:01.591Z,17.20
2018-08-23T21:42:29.724Z,17.10
2018-08-23T21:44:57.853Z,17.10
2018-08-23T21:47:25.974Z,17.10
2018-08-23T21:49:54.106Z,17.10
2018-08-23T21:52:22.226Z,17.00
2018-08-23T21:54:50.354Z,17.00
2018-08-23T21:57:18.478Z,17.00
2018-08-23T21:59:46.605Z,17.00
2018-08-23T22:02:17.876Z,17.10
2018-08-23T22:04:53.411Z,17.10
2018-08-23T22:07:22.553Z,17.10
2018-08-23T22:09:51.784Z,17.00
2018-08-23T22:12:21.822Z,17.00
2018-08-23T22:14:50.579Z,17.00
2018-08-23T22:17:19.389Z,17.10
2018-08-23T22:19:47.549Z,17.00
2018-08-23T22:22:15.677Z,17.00
2018-08-23T22:24:43.862Z,16.90
2018-08-23T22:27:11.982Z,16.90
2018-08-23T22:29:40.102Z,16.90
2018-08-23T22:32:08.978Z,16.80
2018-08-23T22:34:37.165Z,16.70
2018-08-23T22:37:05.322Z,16.60
2018-08-23T22:39:33.454Z,16.50
2018-08-23T22:42:01.576Z,16.50
2018-08-23T22:44:29.709Z,16.40
2018-08-23T22:46:57.847Z,16.40
2018-08-23T22:49:25.965Z,16.30
2018-08-23T22:51:54.088Z,16.30
2018-08-23T22:54:22.250Z,16.30
2018-08-23T22:56:50.395Z,16.20
2018-08-23T22:59:18.519Z,16.10
2018-08-23T23:01:46.657Z,16.00
2018-08-23T23:04:20.237Z,16.00
2018-08-23T23:06:48.365Z,16.00
2018-08-23T23:09:16.489Z,16.00
2018-08-23T23:11:44.643Z,15.90
2018-08-23T23:14:12.771Z,15.90
2018-08-23T23:16:40.907Z,15.90
2018-08-23T23:19:09.021Z,15.80
2018-08-23T23:21:37.143Z,15.80
2018-08-23T23:24:05.308Z,15.80
2018-08-23T23:26:33.428Z,15.70
2018-08-23T23:29:01.554Z,15.70
2018-08-23T23:31:29.684Z,15.70
2018-08-23T23:33:57.814Z,15.60
2018-08-23T23:36:25.942Z,15.60
2018-08-23T23:38:54.059Z,15.60
2018-08-23T23:41:22.188Z,15.60
2018-08-23T23:43:50.302Z,15.50
2018-08-23T23:46:18.425Z,15.50
2018-08-23T23:48:46.550Z,15.50
2018-08-23T23:51:14.676Z,15.50
2018-08-23T23:53:42.790Z,15.60
2018-08-23T23:56:10.953Z,15.60
2018-08-23T23:58:39.057Z,15.70
